sensor_id;sensor_type;location;lat;lon;timestamp;pressure;altitude;pressure_sealevel;temperature;humidity
75420;BME280;63998;52.488;13.428;2022-10-31T00:00:17;101345.19;;;14.93;72.75
75420;BME280;63998;52.488;13.428;2022-10-31T00:02:47;101336.47;;;14.94;72.81
75420;BME280;63998;52.488;13.428;2022-10-31T00:05:13;101338.22;;;14.92;73.13
75420;BME280;63998;52.488;13.428;2022-10-31T00:07:38;101341.69;;;14.94;73.28
75420;BME280;63998;52.488;13.428;2022-10-31T00:10:07;101341.66;;;14.97;73.38
75420;BME280;63998;52.488;13.428;2022-10-31T00:12:34;101340.75;;;15.01;72.96
75420;BME280;63998;52.488;13.428;2022-10-31T00:15:00;101345.13;;;14.99;73.80
75420;BME280;63998;52.488;13.428;2022-10-31T00:17:25;101345.13;;;14.99;73.98
75420;BME280;63998;52.488;13.428;2022-10-31T00:19:50;101339.91;;;14.99;73.79
75420;BME280;63998;52.488;13.428;2022-10-31T00:22:16;101346.88;;;15.00;74.05
75420;BME280;63998;52.488;13.428;2022-10-31T00:24:43;101350.34;;;15.02;74.45
75420;BME280;63998;52.488;13.428;2022-10-31T00:27:09;101352.97;;;14.97;74.96
75420;BME280;63998;52.488;13.428;2022-10-31T00:29:37;101355.72;;;14.78;75.79
75420;BME280;63998;52.488;13.428;2022-10-31T00:32:09;101353.16;;;14.70;76.04
75420;BME280;63998;52.488;13.428;2022-10-31T00:34:34;101356.72;;;14.55;76.30
75420;BME280;63998;52.488;13.428;2022-10-31T00:37:00;101363.69;;;14.50;76.83
75420;BME280;63998;52.488;13.428;2022-10-31T00:39:25;101355.00;;;14.36;77.17
75420;BME280;63998;52.488;13.428;2022-10-31T00:41:53;101363.75;;;14.30;77.57
75420;BME280;63998;52.488;13.428;2022-10-31T00:44:20;101369.84;;;14.25;78.04
75420;BME280;63998;52.488;13.428;2022-10-31T00:46:45;101362.06;;;14.14;78.54
75420;BME280;63998;52.488;13.428;2022-10-31T00:49:11;101370.78;;;14.02;78.93
75420;BME280;63998;52.488;13.428;2022-10-31T00:51:37;101374.31;;;13.95;78.94
75420;BME280;63998;52.488;13.428;2022-10-31T00:54:05;101366.47;;;13.83;79.53
75420;BME280;63998;52.488;13.428;2022-10-31T00:56:30;101380.41;;;13.76;79.92
75420;BME280;63998;52.488;13.428;2022-10-31T00:58:55;101373.44;;;13.64;80.08
75420;BME280;63998;52.488;13.428;2022-10-31T01:01:23;101375.19;;;13.67;80.38
75420;BME280;63998;52.488;13.428;2022-10-31T01:03:49;101394.31;;;13.63;80.62
75420;BME280;63998;52.488;13.428;2022-10-31T01:06:14;101378.66;;;13.63;80.16
75420;BME280;63998;52.488;13.428;2022-10-31T01:08:40;101380.44;;;13.58;80.10
75420;BME280;63998;52.488;13.428;2022-10-31T01:11:11;101390.84;;;13.55;80.60
75420;BME280;63998;52.488;13.428;2022-10-31T01:13:42;101385.63;;;13.52;80.85
75420;BME280;63998;52.488;13.428;2022-10-31T01:16:14;101386.47;;;13.36;81.37
75420;BME280;63998;52.488;13.428;2022-10-31T01:18:40;101390.84;;;13.32;81.75
75420;BME280;63998;52.488;13.428;2022-10-31T01:21:09;101393.44;;;13.20;81.74
75420;BME280;63998;52.488;13.428;2022-10-31T01:23:35;101382.09;;;13.10;82.66
75420;BME280;63998;52.488;13.428;2022-10-31T01:26:16;101385.56;;;13.09;82.76
75420;BME280;63998;52.488;13.428;2022-10-31T01:29:05;101387.28;;;13.13;82.90
75420;BME280;63998;52.488;13.428;2022-10-31T01:31:34;101386.47;;;13.16;82.64
75420;BME280;63998;52.488;13.428;2022-10-31T01:34:00;101382.13;;;13.19;82.25
75420;BME280;63998;52.488;13.428;2022-10-31T01:36:31;101380.38;;;13.18;82.06
75420;BME280;63998;52.488;13.428;2022-10-31T01:39:00;101385.59;;;13.24;82.19
75420;BME280;63998;52.488;13.428;2022-10-31T01:41:32;101387.34;;;13.28;81.88
75420;BME280;63998;52.488;13.428;2022-10-31T01:44:00;101383.88;;;13.29;81.41
75420;BME280;63998;52.488;13.428;2022-10-31T01:46:31;101392.59;;;13.35;81.24
75420;BME280;63998;52.488;13.428;2022-10-31T01:49:00;101389.97;;;13.38;81.22
75420;BME280;63998;52.488;13.428;2022-10-31T01:51:33;101391.72;;;13.39;80.78
75420;BME280;63998;52.488;13.428;2022-10-31T01:54:02;101383.88;;;13.42;81.10
75420;BME280;63998;52.488;13.428;2022-10-31T01:56:29;101390.84;;;13.40;80.65
75420;BME280;63998;52.488;13.428;2022-10-31T01:58:57;101393.44;;;13.40;80.86
75420;BME280;63998;52.488;13.428;2022-10-31T02:01:24;101400.44;;;13.35;81.00
75420;BME280;63998;52.488;13.428;2022-10-31T02:03:50;101405.63;;;13.30;81.20
75420;BME280;63998;52.488;13.428;2022-10-31T02:06:26;101403.88;;;13.26;81.32
75420;BME280;63998;52.488;13.428;2022-10-31T02:08:56;101389.06;;;13.23;80.99
75420;BME280;63998;52.488;13.428;2022-10-31T02:11:26;101404.75;;;13.20;81.14
75420;BME280;63998;52.488;13.428;2022-10-31T02:13:54;101398.66;;;13.20;80.94
75420;BME280;63998;52.488;13.428;2022-10-31T02:16:21;101401.25;;;13.18;80.82
75420;BME280;63998;52.488;13.428;2022-10-31T02:18:48;101399.50;;;13.17;80.87
75420;BME280;63998;52.488;13.428;2022-10-31T02:34:53;101394.28;;;13.16;81.13
75420;BME280;63998;52.488;13.428;2022-10-31T02:37:38;101392.50;;;13.13;80.96
75420;BME280;63998;52.488;13.428;2022-10-31T02:43:11;101390.78;;;13.06;80.81
75420;BME280;63998;52.488;13.428;2022-10-31T02:46:14;101399.47;;;13.11;81.19
75420;BME280;63998;52.488;13.428;2022-10-31T02:48:44;101392.56;;;13.16;80.83
75420;BME280;63998;52.488;13.428;2022-10-31T02:51:15;101404.72;;;13.14;80.77
75420;BME280;63998;52.488;13.428;2022-10-31T02:53:47;101402.06;;;13.04;80.93
75420;BME280;63998;52.488;13.428;2022-10-31T02:56:18;101407.25;;;12.96;81.44
75420;BME280;63998;52.488;13.428;2022-10-31T02:58:56;101408.13;;;12.95;81.33
75420;BME280;63998;52.488;13.428;2022-10-31T03:04:13;101420.25;;;12.87;80.91
75420;BME280;63998;52.488;13.428;2022-10-31T03:09:46;101416.75;;;12.73;81.69
75420;BME280;63998;52.488;13.428;2022-10-31T03:12:29;101416.72;;;12.70;81.47
75420;BME280;63998;52.488;13.428;2022-10-31T03:17:54;101425.38;;;12.66;81.79
75420;BME280;63998;52.488;13.428;2022-10-31T03:20:39;101424.50;;;12.61;81.72
75420;BME280;63998;52.488;13.428;2022-10-31T03:23:09;101429.72;;;12.64;81.98
75420;BME280;63998;52.488;13.428;2022-10-31T03:25:41;101428.88;;;12.68;82.41
75420;BME280;63998;52.488;13.428;2022-10-31T03:28:09;101428.03;;;12.70;81.85
75420;BME280;63998;52.488;13.428;2022-10-31T03:30:41;101439.31;;;12.71;81.86
75420;BME280;63998;52.488;13.428;2022-10-31T03:33:11;101438.47;;;12.72;81.68
75420;BME280;63998;52.488;13.428;2022-10-31T03:35:49;101439.34;;;12.77;81.77
75420;BME280;63998;52.488;13.428;2022-10-31T03:38:16;101445.44;;;12.79;80.94
75420;BME280;63998;52.488;13.428;2022-10-31T03:40:51;101444.56;;;12.80;81.25
75420;BME280;63998;52.488;13.428;2022-10-31T03:43:21;101451.53;;;12.79;81.22
75420;BME280;63998;52.488;13.428;2022-10-31T03:45:48;101450.66;;;12.82;80.93
75420;BME280;63998;52.488;13.428;2022-10-31T03:48:15;101453.28;;;12.86;80.82
75420;BME280;63998;52.488;13.428;2022-10-31T03:51:03;101456.75;;;12.87;80.91
75420;BME280;63998;52.488;13.428;2022-10-31T03:53:36;101462.00;;;12.90;81.08
75420;BME280;63998;52.488;13.428;2022-10-31T03:56:12;101459.38;;;12.85;81.08
75420;BME280;63998;52.488;13.428;2022-10-31T03:58:55;101461.13;;;12.91;80.63
75420;BME280;63998;52.488;13.428;2022-10-31T04:01:24;101460.25;;;12.92;81.08
75420;BME280;63998;52.488;13.428;2022-10-31T04:03:51;101459.41;;;12.93;80.83
75420;BME280;63998;52.488;13.428;2022-10-31T04:06:17;101461.09;;;12.88;80.90
75420;BME280;63998;52.488;13.428;2022-10-31T04:08:56;101463.72;;;12.88;81.41
75420;BME280;63998;52.488;13.428;2022-10-31T04:11:28;101461.13;;;12.85;80.66
75420;BME280;63998;52.488;13.428;2022-10-31T04:13:59;101467.19;;;12.87;80.95
75420;BME280;63998;52.488;13.428;2022-10-31T04:16:29;101465.47;;;12.89;81.07
75420;BME280;63998;52.488;13.428;2022-10-31T04:18:55;101461.09;;;12.86;80.75
75420;BME280;63998;52.488;13.428;2022-10-31T04:21:27;101464.59;;;12.90;81.11
75420;BME280;63998;52.488;13.428;2022-10-31T04:23:56;101462.00;;;12.90;80.99
75420;BME280;63998;52.488;13.428;2022-10-31T04:26:22;101474.16;;;12.91;80.56
75420;BME280;63998;52.488;13.428;2022-10-31T04:28:52;101475.03;;;12.93;81.10
75420;BME280;63998;52.488;13.428;2022-10-31T04:31:20;101477.66;;;12.93;80.38
75420;BME280;63998;52.488;13.428;2022-10-31T04:33:47;101475.91;;;12.92;80.39
75420;BME280;63998;52.488;13.428;2022-10-31T04:36:13;101480.25;;;12.85;80.76
75420;BME280;63998;52.488;13.428;2022-10-31T04:38:38;101475.88;;;12.86;80.35
75420;BME280;63998;52.488;13.428;2022-10-31T04:41:03;101483.69;;;12.81;80.52
75420;BME280;63998;52.488;13.428;2022-10-31T04:43:29;101475.84;;;12.80;81.05
75420;BME280;63998;52.488;13.428;2022-10-31T04:45:59;101486.25;;;12.77;81.16
75420;BME280;63998;52.488;13.428;2022-10-31T04:48:24;101481.91;;;12.76;80.75
75420;BME280;63998;52.488;13.428;2022-10-31T04:50:50;101483.66;;;12.72;81.15
75420;BME280;63998;52.488;13.428;2022-10-31T04:53:17;101477.56;;;12.75;80.85
75420;BME280;63998;52.488;13.428;2022-10-31T04:55:45;101478.47;;;12.83;81.23
75420;BME280;63998;52.488;13.428;2022-10-31T04:58:13;101484.59;;;12.85;80.72
75420;BME280;63998;52.488;13.428;2022-10-31T05:00:38;101474.16;;;12.88;80.85
75420;BME280;63998;52.488;13.428;2022-10-31T05:03:05;101479.38;;;12.91;80.54
75420;BME280;63998;52.488;13.428;2022-10-31T05:05:35;101483.69;;;12.87;79.92
75420;BME280;63998;52.488;13.428;2022-10-31T05:08:01;101479.34;;;12.82;80.59
75420;BME280;63998;52.488;13.428;2022-10-31T05:10:30;101482.78;;;12.78;80.27
75420;BME280;63998;52.488;13.428;2022-10-31T05:13:00;101486.25;;;12.77;80.77
75420;BME280;63998;52.488;13.428;2022-10-31T05:15:27;101489.75;;;12.73;80.72
75420;BME280;63998;52.488;13.428;2022-10-31T05:17:53;101487.09;;;12.67;80.82
75420;BME280;63998;52.488;13.428;2022-10-31T05:20:23;101490.53;;;12.63;80.95
75420;BME280;63998;52.488;13.428;2022-10-31T05:22:53;101493.13;;;12.59;80.87
75420;BME280;63998;52.488;13.428;2022-10-31T05:25:20;101496.59;;;12.62;81.26
75420;BME280;63998;52.488;13.428;2022-10-31T05:27:47;101497.47;;;12.62;80.89
75420;BME280;63998;52.488;13.428;2022-10-31T05:30:16;101501.81;;;12.62;80.67
75420;BME280;63998;52.488;13.428;2022-10-31T05:32:47;101498.34;;;12.63;81.10
75420;BME280;63998;52.488;13.428;2022-10-31T05:35:26;101500.06;;;12.57;81.05
75420;BME280;63998;52.488;13.428;2022-10-31T05:37:52;101499.22;;;12.60;81.31
75420;BME280;63998;52.488;13.428;2022-10-31T05:40:19;101499.22;;;12.60;81.30
75420;BME280;63998;52.488;13.428;2022-10-31T05:42:45;101499.22;;;12.60;81.03
75420;BME280;63998;52.488;13.428;2022-10-31T05:45:15;101499.19;;;12.55;80.98
75420;BME280;63998;52.488;13.428;2022-10-31T05:47:52;101505.25;;;12.54;81.35
75420;BME280;63998;52.488;13.428;2022-10-31T05:50:18;101505.25;;;12.54;81.60
75420;BME280;63998;52.488;13.428;2022-10-31T05:52:46;101509.63;;;12.57;81.20
75420;BME280;63998;52.488;13.428;2022-10-31T05:55:11;101507.00;;;12.55;81.11
75420;BME280;63998;52.488;13.428;2022-10-31T05:57:39;101511.38;;;12.58;80.56
75420;BME280;63998;52.488;13.428;2022-10-31T06:00:05;101506.94;;;12.49;81.50
75420;BME280;63998;52.488;13.428;2022-10-31T06:02:30;101506.06;;;12.43;81.10
75420;BME280;63998;52.488;13.428;2022-10-31T06:04:59;101519.94;;;12.43;81.91
75420;BME280;63998;52.488;13.428;2022-10-31T06:07:32;101519.94;;;12.42;81.62
75420;BME280;63998;52.488;13.428;2022-10-31T06:10:03;101519.94;;;12.42;81.95
75420;BME280;63998;52.488;13.428;2022-10-31T06:12:31;101513.91;;;12.47;81.80
75420;BME280;63998;52.488;13.428;2022-10-31T06:14:56;101523.47;;;12.51;81.68
75420;BME280;63998;52.488;13.428;2022-10-31T06:17:22;101519.19;;;12.59;81.59
75420;BME280;63998;52.488;13.428;2022-10-31T06:19:49;101514.88;;;12.66;81.14
75420;BME280;63998;52.488;13.428;2022-10-31T06:22:14;101521.81;;;12.64;81.09
75420;BME280;63998;52.488;13.428;2022-10-31T06:24:40;101520.94;;;12.64;80.92
75420;BME280;63998;52.488;13.428;2022-10-31T06:27:05;101521.81;;;12.63;80.98
75420;BME280;63998;52.488;13.428;2022-10-31T06:29:31;101522.75;;;12.71;80.92
75420;BME280;63998;52.488;13.428;2022-10-31T06:31:57;101529.72;;;12.78;80.66
75420;BME280;63998;52.488;13.428;2022-10-31T06:34:22;101524.53;;;12.81;80.61
75420;BME280;63998;52.488;13.428;2022-10-31T06:36:47;101539.31;;;12.88;80.51
75420;BME280;63998;52.488;13.428;2022-10-31T06:39:13;101546.28;;;12.89;80.54
75420;BME280;63998;52.488;13.428;2022-10-31T06:41:41;101542.00;;;13.00;80.53
75420;BME280;63998;52.488;13.428;2022-10-31T06:44:09;101547.22;;;13.00;79.97
75420;BME280;63998;52.488;13.428;2022-10-31T06:46:37;101549.81;;;12.94;80.00
75420;BME280;63998;52.488;13.428;2022-10-31T06:49:02;101552.41;;;12.94;80.37
75420;BME280;63998;52.488;13.428;2022-10-31T06:51:27;101559.34;;;12.92;80.38
75420;BME280;63998;52.488;13.428;2022-10-31T06:53:52;101552.38;;;12.88;80.99
75420;BME280;63998;52.488;13.428;2022-10-31T06:56:18;101554.09;;;12.86;80.61
75420;BME280;63998;52.488;13.428;2022-10-31T06:58:43;101562.78;;;12.88;81.11
75420;BME280;63998;52.488;13.428;2022-10-31T07:01:13;101562.88;;;12.97;80.81
75420;BME280;63998;52.488;13.428;2022-10-31T07:03:43;101558.53;;;13.01;80.66
75420;BME280;63998;52.488;13.428;2022-10-31T07:06:11;101562.91;;;13.06;80.65
75420;BME280;63998;52.488;13.428;2022-10-31T07:08:39;101568.16;;;13.09;80.74
75420;BME280;63998;52.488;13.428;2022-10-31T07:11:04;101570.81;;;13.17;80.80
75420;BME280;63998;52.488;13.428;2022-10-31T07:13:30;101568.22;;;13.24;80.52
75420;BME280;63998;52.488;13.428;2022-10-31T07:16:02;101563.06;;;13.34;80.28
75420;BME280;63998;52.488;13.428;2022-10-31T07:18:27;101570.91;;;13.40;79.64
75420;BME280;63998;52.488;13.428;2022-10-31T07:20:55;101567.44;;;13.48;79.84
75420;BME280;63998;52.488;13.428;2022-10-31T07:23:21;101577.03;;;13.54;79.73
75420;BME280;63998;52.488;13.428;2022-10-31T07:25:54;101576.16;;;13.50;79.61
75420;BME280;63998;52.488;13.428;2022-10-31T07:28:20;101568.38;;;13.64;79.64
75420;BME280;63998;52.488;13.428;2022-10-31T07:30:49;101571.88;;;13.75;79.32
75420;BME280;63998;52.488;13.428;2022-10-31T07:33:20;101574.53;;;13.90;79.27
75420;BME280;63998;52.488;13.428;2022-10-31T07:35:46;101583.25;;;14.05;79.04
75420;BME280;63998;52.488;13.428;2022-10-31T07:38:12;101585.88;;;14.11;78.36
75420;BME280;63998;52.488;13.428;2022-10-31T07:40:38;101581.50;;;14.23;78.40
75420;BME280;63998;52.488;13.428;2022-10-31T07:43:10;101587.63;;;14.31;78.14
75420;BME280;63998;52.488;13.428;2022-10-31T07:45:41;101585.88;;;14.35;78.27
75420;BME280;63998;52.488;13.428;2022-10-31T07:48:07;101589.41;;;14.40;78.20
75420;BME280;63998;52.488;13.428;2022-10-31T07:50:32;101589.41;;;14.52;78.01
75420;BME280;63998;52.488;13.428;2022-10-31T07:53:08;101592.00;;;14.67;78.02
75420;BME280;63998;52.488;13.428;2022-10-31T07:55:34;101591.13;;;14.78;77.70
75420;BME280;63998;52.488;13.428;2022-10-31T07:58:11;101601.56;;;14.87;77.72
75420;BME280;63998;52.488;13.428;2022-10-31T08:00:40;101599.81;;;14.92;77.89
75420;BME280;63998;52.488;13.428;2022-10-31T08:03:11;101603.28;;;15.03;77.28
75420;BME280;63998;52.488;13.428;2022-10-31T08:05:39;101617.22;;;15.08;77.14
75420;BME280;63998;52.488;13.428;2022-10-31T08:08:06;101603.25;;;15.09;76.80
75420;BME280;63998;52.488;13.428;2022-10-31T08:10:31;101609.38;;;15.02;76.67
75420;BME280;63998;52.488;13.428;2022-10-31T08:13:02;101615.50;;;14.95;76.55
75420;BME280;63998;52.488;13.428;2022-10-31T08:15:28;101618.13;;;14.95;76.79
75420;BME280;63998;52.488;13.428;2022-10-31T08:17:53;101603.28;;;14.88;76.63
75420;BME280;63998;52.488;13.428;2022-10-31T08:20:19;101607.66;;;14.86;76.73
75420;BME280;63998;52.488;13.428;2022-10-31T08:22:54;101602.41;;;14.87;77.05
75420;BME280;63998;52.488;13.428;2022-10-31T08:25:20;101608.50;;;14.97;77.01
75420;BME280;63998;52.488;13.428;2022-10-31T08:27:50;101617.25;;;14.96;76.68
75420;BME280;63998;52.488;13.428;2022-10-31T08:30:16;101617.25;;;14.93;76.64
75420;BME280;63998;52.488;13.428;2022-10-31T08:32:41;101620.75;;;14.92;76.93
75420;BME280;63998;52.488;13.428;2022-10-31T08:35:07;101624.19;;;14.97;76.62
75420;BME280;63998;52.488;13.428;2022-10-31T08:37:32;101618.97;;;14.97;76.76
75420;BME280;63998;52.488;13.428;2022-10-31T08:39:58;101626.81;;;15.00;76.75
75420;BME280;63998;52.488;13.428;2022-10-31T08:42:23;101628.56;;;14.99;76.99
75420;BME280;63998;52.488;13.428;2022-10-31T08:44:48;101618.97;;;15.06;76.61
75420;BME280;63998;52.488;13.428;2022-10-31T08:47:13;101610.25;;;15.07;76.54
75420;BME280;63998;52.488;13.428;2022-10-31T08:49:39;101617.19;;;15.11;76.27
75420;BME280;63998;52.488;13.428;2022-10-31T08:52:04;101611.97;;;15.14;76.36
75420;BME280;63998;52.488;13.428;2022-10-31T08:54:32;101607.59;;;15.13;76.22
75420;BME280;63998;52.488;13.428;2022-10-31T08:56:57;101602.38;;;15.15;76.02
75420;BME280;63998;52.488;13.428;2022-10-31T08:59:22;101604.97;;;15.19;76.18
75420;BME280;63998;52.488;13.428;2022-10-31T09:01:50;101615.44;;;15.19;75.72
75420;BME280;63998;52.488;13.428;2022-10-31T09:04:18;101614.53;;;15.22;75.71
75420;BME280;63998;52.488;13.428;2022-10-31T09:06:45;101618.94;;;15.18;75.89
75420;BME280;63998;52.488;13.428;2022-10-31T09:09:11;101617.19;;;15.20;75.79
75420;BME280;63998;52.488;13.428;2022-10-31T09:11:36;101624.13;;;15.27;75.56
75420;BME280;63998;52.488;13.428;2022-10-31T09:14:01;101624.09;;;15.35;75.51
75420;BME280;63998;52.488;13.428;2022-10-31T09:16:26;101623.22;;;15.34;75.25
75420;BME280;63998;52.488;13.428;2022-10-31T09:18:52;101634.56;;;15.39;74.81
75420;BME280;63998;52.488;13.428;2022-10-31T09:21:17;101635.47;;;15.31;75.20
75420;BME280;63998;52.488;13.428;2022-10-31T09:23:45;101638.97;;;15.33;75.30
75420;BME280;63998;52.488;13.428;2022-10-31T09:26:12;101631.06;;;15.34;75.18
75420;BME280;63998;52.488;13.428;2022-10-31T09:28:38;101641.53;;;15.40;75.49
75420;BME280;63998;52.488;13.428;2022-10-31T09:31:05;101638.06;;;15.41;75.22
75420;BME280;63998;52.488;13.428;2022-10-31T09:33:31;101642.38;;;15.53;75.17
75420;BME280;63998;52.488;13.428;2022-10-31T09:35:58;101643.28;;;15.57;75.15
75420;BME280;63998;52.488;13.428;2022-10-31T09:38:23;101636.25;;;15.68;74.87
75420;BME280;63998;52.488;13.428;2022-10-31T09:41:02;101641.41;;;15.77;74.69
75420;BME280;63998;52.488;13.428;2022-10-31T09:43:51;101637.91;;;15.81;74.11
75420;BME280;63998;52.488;13.428;2022-10-31T09:46:30;101648.34;;;15.86;73.99
75420;BME280;63998;52.488;13.428;2022-10-31T09:52:00;101655.38;;;15.82;74.03
75420;BME280;63998;52.488;13.428;2022-10-31T09:54:41;101651.84;;;15.86;74.01
75420;BME280;63998;52.488;13.428;2022-10-31T09:57:17;101655.34;;;15.88;73.83
75420;BME280;63998;52.488;13.428;2022-10-31T09:59:47;101644.91;;;15.82;73.80
75420;BME280;63998;52.488;13.428;2022-10-31T10:02:19;101647.53;;;15.82;73.65
75420;BME280;63998;52.488;13.428;2022-10-31T10:04:56;101643.16;;;15.78;74.04
75420;BME280;63998;52.488;13.428;2022-10-31T10:07:35;101641.41;;;15.80;73.79
75420;BME280;63998;52.488;13.428;2022-10-31T10:10:17;101650.06;;;15.94;74.11
75420;BME280;63998;52.488;13.428;2022-10-31T10:13:05;101651.84;;;15.86;73.96
75420;BME280;63998;52.488;13.428;2022-10-31T10:20:59;101634.38;;;15.85;73.80
75420;BME280;63998;52.488;13.428;2022-10-31T10:26:29;101631.88;;;15.59;74.60
75420;BME280;63998;52.488;13.428;2022-10-31T10:28:57;101625.78;;;15.62;74.64
75420;BME280;63998;52.488;13.428;2022-10-31T10:31:29;101632.69;;;15.75;74.44
75420;BME280;63998;52.488;13.428;2022-10-31T10:34:06;101621.28;;;15.88;74.18
75420;BME280;63998;52.488;13.428;2022-10-31T10:36:42;101623.00;;;15.89;74.28
75420;BME280;63998;52.488;13.428;2022-10-31T10:39:29;101615.88;;;16.09;73.94
75420;BME280;63998;52.488;13.428;2022-10-31T10:42:01;101618.38;;;16.31;72.93
75420;BME280;63998;52.488;13.428;2022-10-31T10:44:47;101620.06;;;16.39;72.61
75420;BME280;63998;52.488;13.428;2022-10-31T10:47:41;101607.72;;;16.49;72.19
75420;BME280;63998;52.488;13.428;2022-10-31T10:50:22;101611.06;;;16.69;71.37
75420;BME280;63998;52.488;13.428;2022-10-31T10:53:04;101611.78;;;16.85;71.12
75420;BME280;63998;52.488;13.428;2022-10-31T10:55:41;101614.38;;;16.93;70.68
75420;BME280;63998;52.488;13.428;2022-10-31T10:58:09;101617.91;;;16.88;70.30
75420;BME280;63998;52.488;13.428;2022-10-31T11:00:42;101609.00;;;17.02;70.36
75420;BME280;63998;52.488;13.428;2022-10-31T11:03:09;101610.47;;;17.27;69.76
75420;BME280;63998;52.488;13.428;2022-10-31T11:05:39;101607.56;;;17.51;68.95
75420;BME280;63998;52.488;13.428;2022-10-31T11:08:06;101609.03;;;17.75;68.25
75420;BME280;63998;52.488;13.428;2022-10-31T11:10:32;101605.56;;;17.72;67.46
75420;BME280;63998;52.488;13.428;2022-10-31T11:15:34;101600.97;;;17.86;67.48
75420;BME280;63998;52.488;13.428;2022-10-31T11:18:01;101601.66;;;17.99;67.07
75420;BME280;63998;52.488;13.428;2022-10-31T11:20:35;101600.66;;;18.07;66.75
75420;BME280;63998;52.488;13.428;2022-10-31T11:23:21;101595.47;;;18.04;66.40
75420;BME280;63998;52.488;13.428;2022-10-31T11:25:50;101587.25;;;18.24;66.30
75420;BME280;63998;52.488;13.428;2022-10-31T11:28:16;101587.28;;;18.21;65.82
75420;BME280;63998;52.488;13.428;2022-10-31T11:30:46;101588.09;;;18.27;65.42
75420;BME280;63998;52.488;13.428;2022-10-31T11:33:33;101583.69;;;18.28;64.97
75420;BME280;63998;52.488;13.428;2022-10-31T11:36:03;101580.66;;;18.51;65.03
75420;BME280;63998;52.488;13.428;2022-10-31T11:38:43;101582.94;;;18.72;64.49
75420;BME280;63998;52.488;13.428;2022-10-31T11:41:10;101590.44;;;18.93;63.72
75420;BME280;63998;52.488;13.428;2022-10-31T11:43:37;101586.38;;;19.22;63.12
75420;BME280;63998;52.488;13.428;2022-10-31T11:46:11;101577.81;;;19.54;62.19
75420;BME280;63998;52.488;13.428;2022-10-31T11:48:47;101578.13;;;19.79;61.44
75420;BME280;63998;52.488;13.428;2022-10-31T11:51:12;101575.19;;;19.92;60.55
75420;BME280;63998;52.488;13.428;2022-10-31T11:53:51;101581.59;;;20.19;60.20
75420;BME280;63998;52.488;13.428;2022-10-31T11:56:17;101589.66;;;20.13;59.51
75420;BME280;63998;52.488;13.428;2022-10-31T11:58:43;101589.22;;;19.94;59.93
75420;BME280;63998;52.488;13.428;2022-10-31T12:01:29;101575.47;;;20.17;59.68
75420;BME280;63998;52.488;13.428;2022-10-31T12:04:11;101578.53;;;20.37;59.15
75420;BME280;63998;52.488;13.428;2022-10-31T12:06:41;101569.88;;;20.65;58.57
75420;BME280;63998;52.488;13.428;2022-10-31T12:09:20;101563.81;;;20.94;57.63
75420;BME280;63998;52.488;13.428;2022-10-31T12:17:25;101564.50;;;21.33;56.31
75420;BME280;63998;52.488;13.428;2022-10-31T12:20:03;101565.09;;;21.42;55.98
75420;BME280;63998;52.488;13.428;2022-10-31T12:22:41;101561.31;;;21.79;55.52
75420;BME280;63998;52.488;13.428;2022-10-31T12:25:16;101568.69;;;21.99;54.37
75420;BME280;63998;52.488;13.428;2022-10-31T12:27:59;101553.47;;;22.05;53.57
75420;BME280;63998;52.488;13.428;2022-10-31T12:33:42;101549.44;;;22.46;52.94
75420;BME280;63998;52.488;13.428;2022-10-31T12:39:05;101545.81;;;22.74;52.18
75420;BME280;63998;52.488;13.428;2022-10-31T12:55:17;101529.91;;;23.90;49.03
75420;BME280;63998;52.488;13.428;2022-10-31T12:57:56;101527.78;;;23.98;48.89
75420;BME280;63998;52.488;13.428;2022-10-31T13:00:27;101519.56;;;23.84;48.67
75420;BME280;63998;52.488;13.428;2022-10-31T13:03:01;101525.41;;;23.92;48.54
75420;BME280;63998;52.488;13.428;2022-10-31T13:05:37;101523.97;;;24.06;48.33
75420;BME280;63998;52.488;13.428;2022-10-31T13:08:09;101530.44;;;23.98;48.28
75420;BME280;63998;52.488;13.428;2022-10-31T13:10:49;101525.56;;;24.10;48.01
75420;BME280;63998;52.488;13.428;2022-10-31T13:13:33;101521.53;;;24.23;47.96
75420;BME280;63998;52.488;13.428;2022-10-31T13:16:04;101522.69;;;24.36;47.50
75420;BME280;63998;52.488;13.428;2022-10-31T13:18:44;101517.94;;;24.44;47.32
75420;BME280;63998;52.488;13.428;2022-10-31T13:21:20;101511.78;;;24.62;46.88
75420;BME280;63998;52.488;13.428;2022-10-31T13:23:49;101515.63;;;24.76;46.53
75420;BME280;63998;52.488;13.428;2022-10-31T13:30:01;101509.50;;;24.34;46.98
75420;BME280;63998;52.488;13.428;2022-10-31T13:32:09;101508.34;;;24.40;47.04
75420;BME280;63998;52.488;13.428;2022-10-31T13:35:04;101508.88;;;24.28;47.32
75420;BME280;63998;52.488;13.428;2022-10-31T13:37:44;101500.13;;;24.26;47.40
75420;BME280;63998;52.488;13.428;2022-10-31T13:40:15;101507.78;;;24.33;47.48
75420;BME280;63998;52.488;13.428;2022-10-31T13:45:50;101498.16;;;24.31;47.25
75420;BME280;63998;52.488;13.428;2022-10-31T13:50:43;101504.59;;;24.04;48.07
75420;BME280;63998;52.488;13.428;2022-10-31T13:53:34;101492.88;;;23.87;48.40
75420;BME280;63998;52.488;13.428;2022-10-31T13:56:17;101485.72;;;23.68;49.05
75420;BME280;63998;52.488;13.428;2022-10-31T13:58:57;101495.97;;;23.55;49.16
75420;BME280;63998;52.488;13.428;2022-10-31T14:01:23;101485.81;;;23.43;49.52
75420;BME280;63998;52.488;13.428;2022-10-31T14:04:14;101491.72;;;23.27;49.99
75420;BME280;63998;52.488;13.428;2022-10-31T14:06:54;101495.91;;;23.11;50.41
75420;BME280;63998;52.488;13.428;2022-10-31T14:09:32;101489.53;;;22.92;50.98